sensor_id;sensor_type;location;lat;lon;timestamp;temperature;humidity
71188;DHT22;58893;53.130;8.158;2022-08-30T00:01:24;20.00;64.60
71188;DHT22;58893;53.130;8.158;2022-08-30T00:03:51;20.00;64.80
71188;DHT22;58893;53.130;8.158;2022-08-30T00:06:19;19.90;64.80
71188;DHT22;58893;53.130;8.158;2022-08-30T00:08:46;19.90;65.00
71188;DHT22;58893;53.130;8.158;2022-08-30T00:11:18;19.90;65.00
71188;DHT22;58893;53.130;8.158;2022-08-30T00:13:47;19.90;65.00
71188;DHT22;58893;53.130;8.158;2022-08-30T00:16:15;19.80;64.90
71188;DHT22;58893;53.130;8.158;2022-08-30T00:18:42;19.80;65.00
71188;DHT22;58893;53.130;8.158;2022-08-30T00:21:08;19.80;65.00
71188;DHT22;58893;53.130;8.158;2022-08-30T00:23:34;19.80;64.90
71188;DHT22;58893;53.130;8.158;2022-08-30T00:26:00;19.70;64.90
71188;DHT22;58893;53.130;8.158;2022-08-30T00:28:27;19.70;64.90
71188;DHT22;58893;53.130;8.158;2022-08-30T00:30:53;19.70;64.90
71188;DHT22;58893;53.130;8.158;2022-08-30T00:33:19;19.60;64.90
71188;DHT22;58893;53.130;8.158;2022-08-30T00:35:45;19.60;65.00
71188;DHT22;58893;53.130;8.158;2022-08-30T00:38:11;19.60;65.00
71188;DHT22;58893;53.130;8.158;2022-08-30T00:40:38;19.50;64.80
71188;DHT22;58893;53.130;8.158;2022-08-30T00:43:09;19.50;64.80
71188;DHT22;58893;53.130;8.158;2022-08-30T00:45:37;19.50;64.70
71188;DHT22;58893;53.130;8.158;2022-08-30T00:48:04;19.40;64.60
71188;DHT22;58893;53.130;8.158;2022-08-30T00:50:34;19.40;64.50
71188;DHT22;58893;53.130;8.158;2022-08-30T00:53:04;19.40;64.90
71188;DHT22;58893;53.130;8.158;2022-08-30T00:55:31;19.30;64.30
71188;DHT22;58893;53.130;8.158;2022-08-30T00:58:01;19.30;64.20
71188;DHT22;58893;53.130;8.158;2022-08-30T01:00:27;19.20;64.10
71188;DHT22;58893;53.130;8.158;2022-08-30T01:02:53;19.20;64.20
71188;DHT22;58893;53.130;8.158;2022-08-30T01:05:20;19.10;64.20
71188;DHT22;58893;53.130;8.158;2022-08-30T01:07:46;19.10;64.10
71188;DHT22;58893;53.130;8.158;2022-08-30T01:10:13;19.10;64.90
71188;DHT22;58893;53.130;8.158;2022-08-30T01:12:40;19.00;64.20
71188;DHT22;58893;53.130;8.158;2022-08-30T01:15:07;19.00;64.40
71188;DHT22;58893;53.130;8.158;2022-08-30T01:17:33;18.90;64.60
71188;DHT22;58893;53.130;8.158;2022-08-30T01:20:12;18.90;64.60
71188;DHT22;58893;53.130;8.158;2022-08-30T01:23:01;18.90;64.40
71188;DHT22;58893;53.130;8.158;2022-08-30T01:25:29;18.90;64.10
71188;DHT22;58893;53.130;8.158;2022-08-30T01:28:19;18.80;63.60
71188;DHT22;58893;53.130;8.158;2022-08-30T01:30:45;18.80;63.30
71188;DHT22;58893;53.130;8.158;2022-08-30T01:33:11;18.70;63.30
71188;DHT22;58893;53.130;8.158;2022-08-30T01:35:48;18.70;63.60
71188;DHT22;58893;53.130;8.158;2022-08-30T01:38:16;18.60;63.70
71188;DHT22;58893;53.130;8.158;2022-08-30T01:40:43;18.60;63.80
71188;DHT22;58893;53.130;8.158;2022-08-30T01:43:11;18.60;64.00
71188;DHT22;58893;53.130;8.158;2022-08-30T01:45:38;18.50;63.70
71188;DHT22;58893;53.130;8.158;2022-08-30T01:48:03;18.50;63.40
71188;DHT22;58893;53.130;8.158;2022-08-30T01:50:29;18.50;63.20
71188;DHT22;58893;53.130;8.158;2022-08-30T01:52:55;18.50;63.50
71188;DHT22;58893;53.130;8.158;2022-08-30T01:55:20;18.40;63.80
71188;DHT22;58893;53.130;8.158;2022-08-30T01:57:46;18.40;64.20
71188;DHT22;58893;53.130;8.158;2022-08-30T02:00:12;18.40;64.50
71188;DHT22;58893;53.130;8.158;2022-08-30T02:02:38;18.30;64.60
71188;DHT22;58893;53.130;8.158;2022-08-30T02:05:05;18.30;64.60
71188;DHT22;58893;53.130;8.158;2022-08-30T02:07:31;18.30;64.80
71188;DHT22;58893;53.130;8.158;2022-08-30T02:09:57;18.30;64.80
71188;DHT22;58893;53.130;8.158;2022-08-30T02:12:22;18.30;64.80
71188;DHT22;58893;53.130;8.158;2022-08-30T02:14:48;18.30;64.70
71188;DHT22;58893;53.130;8.158;2022-08-30T02:17:14;18.20;64.60
71188;DHT22;58893;53.130;8.158;2022-08-30T02:19:40;18.20;64.70
71188;DHT22;58893;53.130;8.158;2022-08-30T02:22:06;18.20;64.80
71188;DHT22;58893;53.130;8.158;2022-08-30T02:24:32;18.20;64.90
71188;DHT22;58893;53.130;8.158;2022-08-30T02:26:57;18.20;64.90
71188;DHT22;58893;53.130;8.158;2022-08-30T02:29:24;18.20;65.60
71188;DHT22;58893;53.130;8.158;2022-08-30T02:31:50;18.20;65.00
71188;DHT22;58893;53.130;8.158;2022-08-30T02:34:17;18.20;65.00
71188;DHT22;58893;53.130;8.158;2022-08-30T02:36:44;18.20;64.70
71188;DHT22;58893;53.130;8.158;2022-08-30T02:39:11;18.20;64.50
71188;DHT22;58893;53.130;8.158;2022-08-30T02:41:37;18.10;64.50
71188;DHT22;58893;53.130;8.158;2022-08-30T02:44:04;18.10;64.70
71188;DHT22;58893;53.130;8.158;2022-08-30T02:46:30;18.10;64.80
71188;DHT22;58893;53.130;8.158;2022-08-30T02:48:56;18.10;65.40
71188;DHT22;58893;53.130;8.158;2022-08-30T02:51:22;18.10;65.60
71188;DHT22;58893;53.130;8.158;2022-08-30T02:53:48;18.10;64.90
71188;DHT22;58893;53.130;8.158;2022-08-30T02:56:14;18.10;65.00
71188;DHT22;58893;53.130;8.158;2022-08-30T02:58:41;18.10;65.00
71188;DHT22;58893;53.130;8.158;2022-08-30T03:01:09;18.10;65.00
71188;DHT22;58893;53.130;8.158;2022-08-30T03:03:36;18.00;65.00
71188;DHT22;58893;53.130;8.158;2022-08-30T03:06:02;18.10;65.10
71188;DHT22;58893;53.130;8.158;2022-08-30T03:08:28;18.10;65.20
71188;DHT22;58893;53.130;8.158;2022-08-30T03:10:54;18.10;65.30
71188;DHT22;58893;53.130;8.158;2022-08-30T03:13:24;18.10;65.20
71188;DHT22;58893;53.130;8.158;2022-08-30T03:15:50;18.00;65.30
71188;DHT22;58893;53.130;8.158;2022-08-30T03:18:19;18.00;64.50
71188;DHT22;58893;53.130;8.158;2022-08-30T03:20:46;18.00;64.40
71188;DHT22;58893;53.130;8.158;2022-08-30T03:23:13;18.00;64.30
71188;DHT22;58893;53.130;8.158;2022-08-30T03:25:38;18.00;64.90
71188;DHT22;58893;53.130;8.158;2022-08-30T03:28:05;18.00;64.30
71188;DHT22;58893;53.130;8.158;2022-08-30T03:30:31;17.90;64.20
71188;DHT22;58893;53.130;8.158;2022-08-30T03:32:57;17.90;64.20
71188;DHT22;58893;53.130;8.158;2022-08-30T03:35:23;17.90;64.10
71188;DHT22;58893;53.130;8.158;2022-08-30T03:37:48;17.80;63.70
71188;DHT22;58893;53.130;8.158;2022-08-30T03:40:16;17.80;63.50
71188;DHT22;58893;53.130;8.158;2022-08-30T03:42:43;17.80;63.30
71188;DHT22;58893;53.130;8.158;2022-08-30T03:45:09;17.70;63.20
71188;DHT22;58893;53.130;8.158;2022-08-30T03:47:35;17.70;63.70
71188;DHT22;58893;53.130;8.158;2022-08-30T03:50:02;17.70;64.10
71188;DHT22;58893;53.130;8.158;2022-08-30T03:52:28;17.60;64.20
71188;DHT22;58893;53.130;8.158;2022-08-30T03:54:53;17.60;64.20
71188;DHT22;58893;53.130;8.158;2022-08-30T03:57:19;17.60;64.00
71188;DHT22;58893;53.130;8.158;2022-08-30T03:59:44;17.60;63.70
71188;DHT22;58893;53.130;8.158;2022-08-30T04:02:10;17.60;63.50
71188;DHT22;58893;53.130;8.158;2022-08-30T04:04:36;17.60;63.30
71188;DHT22;58893;53.130;8.158;2022-08-30T04:07:01;17.50;63.20
71188;DHT22;58893;53.130;8.158;2022-08-30T04:09:27;17.50;63.00
71188;DHT22;58893;53.130;8.158;2022-08-30T04:11:53;17.50;62.90
71188;DHT22;58893;53.130;8.158;2022-08-30T04:14:18;17.40;62.60
71188;DHT22;58893;53.130;8.158;2022-08-30T04:16:44;17.40;62.60
71188;DHT22;58893;53.130;8.158;2022-08-30T04:19:10;17.40;62.40
71188;DHT22;58893;53.130;8.158;2022-08-30T04:21:36;17.40;62.40
71188;DHT22;58893;53.130;8.158;2022-08-30T04:24:02;17.30;62.50
71188;DHT22;58893;53.130;8.158;2022-08-30T04:26:28;17.30;62.80
71188;DHT22;58893;53.130;8.158;2022-08-30T04:28:54;17.30;63.10
71188;DHT22;58893;53.130;8.158;2022-08-30T04:31:20;17.20;63.40
71188;DHT22;58893;53.130;8.158;2022-08-30T04:33:46;17.30;63.70
71188;DHT22;58893;53.130;8.158;2022-08-30T04:36:12;17.30;63.60
71188;DHT22;58893;53.130;8.158;2022-08-30T04:38:39;17.30;63.30
71188;DHT22;58893;53.130;8.158;2022-08-30T04:41:13;17.20;63.10
71188;DHT22;58893;53.130;8.158;2022-08-30T04:43:42;17.20;63.00
71188;DHT22;58893;53.130;8.158;2022-08-30T04:46:08;17.20;63.00
71188;DHT22;58893;53.130;8.158;2022-08-30T04:48:35;17.20;63.00
71188;DHT22;58893;53.130;8.158;2022-08-30T04:51:12;17.20;63.00
71188;DHT22;58893;53.130;8.158;2022-08-30T04:53:39;17.20;63.30
71188;DHT22;58893;53.130;8.158;2022-08-30T04:56:16;17.20;63.50
71188;DHT22;58893;53.130;8.158;2022-08-30T04:58:43;17.20;63.70
71188;DHT22;58893;53.130;8.158;2022-08-30T05:01:14;17.20;63.60
71188;DHT22;58893;53.130;8.158;2022-08-30T05:03:40;17.20;63.80
71188;DHT22;58893;53.130;8.158;2022-08-30T05:06:06;17.20;63.60
71188;DHT22;58893;53.130;8.158;2022-08-30T05:08:32;17.20;63.70
71188;DHT22;58893;53.130;8.158;2022-08-30T05:10:58;17.20;63.90
71188;DHT22;58893;53.130;8.158;2022-08-30T05:13:23;17.20;64.40
71188;DHT22;58893;53.130;8.158;2022-08-30T05:15:49;17.20;65.00
71188;DHT22;58893;53.130;8.158;2022-08-30T05:18:15;17.20;65.50
71188;DHT22;58893;53.130;8.158;2022-08-30T05:20:41;17.30;65.90
71188;DHT22;58893;53.130;8.158;2022-08-30T05:23:07;17.30;66.30
71188;DHT22;58893;53.130;8.158;2022-08-30T05:25:36;17.30;66.60
71188;DHT22;58893;53.130;8.158;2022-08-30T05:28:02;17.40;66.70
71188;DHT22;58893;53.130;8.158;2022-08-30T05:30:31;17.40;66.20
71188;DHT22;58893;53.130;8.158;2022-08-30T05:32:57;17.50;66.10
71188;DHT22;58893;53.130;8.158;2022-08-30T05:35:23;17.50;66.10
71188;DHT22;58893;53.130;8.158;2022-08-30T05:37:49;17.50;66.40
71188;DHT22;58893;53.130;8.158;2022-08-30T05:40:15;17.50;66.60
71188;DHT22;58893;53.130;8.158;2022-08-30T05:42:45;17.60;66.90
71188;DHT22;58893;53.130;8.158;2022-08-30T05:45:11;17.60;67.00
71188;DHT22;58893;53.130;8.158;2022-08-30T05:47:38;17.60;67.00
71188;DHT22;58893;53.130;8.158;2022-08-30T05:50:05;17.70;67.10
71188;DHT22;58893;53.130;8.158;2022-08-30T05:52:35;17.70;67.10
71188;DHT22;58893;53.130;8.158;2022-08-30T05:55:00;17.70;67.00
71188;DHT22;58893;53.130;8.158;2022-08-30T05:57:31;17.80;67.20
71188;DHT22;58893;53.130;8.158;2022-08-30T05:59:59;17.80;67.20
71188;DHT22;58893;53.130;8.158;2022-08-30T06:02:25;17.80;67.20
71188;DHT22;58893;53.130;8.158;2022-08-30T06:04:50;17.80;67.10
71188;DHT22;58893;53.130;8.158;2022-08-30T06:07:16;17.80;67.00
71188;DHT22;58893;53.130;8.158;2022-08-30T06:09:41;17.80;67.00
71188;DHT22;58893;53.130;8.158;2022-08-30T06:12:07;17.90;67.80
71188;DHT22;58893;53.130;8.158;2022-08-30T06:14:33;17.90;67.20
71188;DHT22;58893;53.130;8.158;2022-08-30T06:16:58;17.90;67.30
71188;DHT22;58893;53.130;8.158;2022-08-30T06:19:24;18.00;67.40
71188;DHT22;58893;53.130;8.158;2022-08-30T06:21:50;17.90;67.40
71188;DHT22;58893;53.130;8.158;2022-08-30T06:24:16;18.00;67.40
71188;DHT22;58893;53.130;8.158;2022-08-30T06:26:44;17.90;67.20
71188;DHT22;58893;53.130;8.158;2022-08-30T06:29:15;17.90;67.20
71188;DHT22;58893;53.130;8.158;2022-08-30T06:31:41;18.00;67.30
71188;DHT22;58893;53.130;8.158;2022-08-30T06:34:07;18.00;67.30
71188;DHT22;58893;53.130;8.158;2022-08-30T06:36:33;18.00;67.20
71188;DHT22;58893;53.130;8.158;2022-08-30T06:38:59;18.00;67.20
71188;DHT22;58893;53.130;8.158;2022-08-30T06:41:30;18.00;67.30
71188;DHT22;58893;53.130;8.158;2022-08-30T06:43:57;18.00;67.30
71188;DHT22;58893;53.130;8.158;2022-08-30T06:46:26;18.00;67.30
71188;DHT22;58893;53.130;8.158;2022-08-30T06:48:52;18.00;67.30
71188;DHT22;58893;53.130;8.158;2022-08-30T06:51:28;18.00;67.30
71188;DHT22;58893;53.130;8.158;2022-08-30T06:53:54;18.00;67.30
71188;DHT22;58893;53.130;8.158;2022-08-30T06:56:21;18.00;67.30
71188;DHT22;58893;53.130;8.158;2022-08-30T06:58:47;18.10;68.10
71188;DHT22;58893;53.130;8.158;2022-08-30T07:01:15;18.10;67.50
71188;DHT22;58893;53.130;8.158;2022-08-30T07:03:42;18.10;67.60
71188;DHT22;58893;53.130;8.158;2022-08-30T07:06:08;18.20;67.90
71188;DHT22;58893;53.130;8.158;2022-08-30T07:08:35;18.20;67.90
71188;DHT22;58893;53.130;8.158;2022-08-30T07:11:00;18.30;68.00
71188;DHT22;58893;53.130;8.158;2022-08-30T07:13:26;18.40;68.00
71188;DHT22;58893;53.130;8.158;2022-08-30T07:15:52;18.40;67.70
71188;DHT22;58893;53.130;8.158;2022-08-30T07:18:19;18.50;67.60
71188;DHT22;58893;53.130;8.158;2022-08-30T07:21:14;18.60;67.50
71188;DHT22;58893;53.130;8.158;2022-08-30T07:23:42;18.70;67.40
71188;DHT22;58893;53.130;8.158;2022-08-30T07:26:10;18.80;67.20
71188;DHT22;58893;53.130;8.158;2022-08-30T07:28:37;18.90;66.80
71188;DHT22;58893;53.130;8.158;2022-08-30T07:31:03;19.00;66.40
71188;DHT22;58893;53.130;8.158;2022-08-30T07:33:29;19.00;66.00
71188;DHT22;58893;53.130;8.158;2022-08-30T07:35:55;19.10;65.60
71188;DHT22;58893;53.130;8.158;2022-08-30T07:38:20;19.20;65.10
71188;DHT22;58893;53.130;8.158;2022-08-30T07:40:46;19.30;64.00
71188;DHT22;58893;53.130;8.158;2022-08-30T07:43:12;19.30;63.30
71188;DHT22;58893;53.130;8.158;2022-08-30T07:45:38;19.40;63.10
71188;DHT22;58893;53.130;8.158;2022-08-30T07:48:04;19.50;62.60
71188;DHT22;58893;53.130;8.158;2022-08-30T07:50:31;19.50;62.10
71188;DHT22;58893;53.130;8.158;2022-08-30T07:52:57;19.60;62.00
71188;DHT22;58893;53.130;8.158;2022-08-30T07:55:23;19.60;62.00
71188;DHT22;58893;53.130;8.158;2022-08-30T07:57:48;19.70;61.90
71188;DHT22;58893;53.130;8.158;2022-08-30T08:00:14;19.80;61.90
71188;DHT22;58893;53.130;8.158;2022-08-30T08:02:40;19.90;61.00
71188;DHT22;58893;53.130;8.158;2022-08-30T08:05:07;20.00;60.70
71188;DHT22;58893;53.130;8.158;2022-08-30T08:07:34;20.00;60.50
71188;DHT22;58893;53.130;8.158;2022-08-30T08:10:00;20.10;61.10
71188;DHT22;58893;53.130;8.158;2022-08-30T08:12:26;20.20;60.10
71188;DHT22;58893;53.130;8.158;2022-08-30T08:14:52;20.20;59.70
71188;DHT22;58893;53.130;8.158;2022-08-30T08:17:17;20.30;59.60
71188;DHT22;58893;53.130;8.158;2022-08-30T08:19:43;20.30;59.20
71188;DHT22;58893;53.130;8.158;2022-08-30T08:22:09;20.40;59.30
71188;DHT22;58893;53.130;8.158;2022-08-30T08:24:34;20.50;59.40
71188;DHT22;58893;53.130;8.158;2022-08-30T08:27:00;20.50;59.40
71188;DHT22;58893;53.130;8.158;2022-08-30T08:29:26;20.60;59.40
71188;DHT22;58893;53.130;8.158;2022-08-30T08:31:53;20.60;59.40
71188;DHT22;58893;53.130;8.158;2022-08-30T08:34:19;20.70;59.80
71188;DHT22;58893;53.130;8.158;2022-08-30T08:36:48;20.80;59.90
71188;DHT22;58893;53.130;8.158;2022-08-30T08:39:14;20.80;60.00
71188;DHT22;58893;53.130;8.158;2022-08-30T08:42:07;20.90;60.30
71188;DHT22;58893;53.130;8.158;2022-08-30T08:44:55;20.90;60.20
71188;DHT22;58893;53.130;8.158;2022-08-30T08:47:36;21.00;60.50
71188;DHT22;58893;53.130;8.158;2022-08-30T08:50:11;21.00;60.80
71188;DHT22;58893;53.130;8.158;2022-08-30T08:52:57;21.10;60.70
71188;DHT22;58893;53.130;8.158;2022-08-30T08:55:49;21.10;61.00
71188;DHT22;58893;53.130;8.158;2022-08-30T08:58:23;21.10;61.00
71188;DHT22;58893;53.130;8.158;2022-08-30T09:00:49;21.20;61.00
71188;DHT22;58893;53.130;8.158;2022-08-30T09:03:18;21.20;61.20
71188;DHT22;58893;53.130;8.158;2022-08-30T09:05:45;21.20;62.00
71188;DHT22;58893;53.130;8.158;2022-08-30T09:08:14;21.30;61.10
71188;DHT22;58893;53.130;8.158;2022-08-30T09:10:45;21.30;60.90
71188;DHT22;58893;53.130;8.158;2022-08-30T09:13:12;21.30;60.80
71188;DHT22;58893;53.130;8.158;2022-08-30T09:15:38;21.30;60.50
71188;DHT22;58893;53.130;8.158;2022-08-30T09:18:06;21.30;60.50
71188;DHT22;58893;53.130;8.158;2022-08-30T09:20:36;21.40;60.60
71188;DHT22;58893;53.130;8.158;2022-08-30T09:25:52;21.40;60.20
71188;DHT22;58893;53.130;8.158;2022-08-30T09:28:30;21.40;60.00
71188;DHT22;58893;53.130;8.158;2022-08-30T09:31:26;21.40;60.00
71188;DHT22;58893;53.130;8.158;2022-08-30T09:36:28;21.40;60.00
71188;DHT22;58893;53.130;8.158;2022-08-30T09:39:02;21.40;60.10
71188;DHT22;58893;53.130;8.158;2022-08-30T09:41:37;21.50;60.30
71188;DHT22;58893;53.130;8.158;2022-08-30T09:46:53;21.50;60.10
71188;DHT22;58893;53.130;8.158;2022-08-30T09:50:05;21.50;60.40
71188;DHT22;58893;53.130;8.158;2022-08-30T10:00:52;21.60;59.30
71188;DHT22;58893;53.130;8.158;2022-08-30T10:03:35;21.60;59.40
71188;DHT22;58893;53.130;8.158;2022-08-30T10:06:14;21.60;59.50
71188;DHT22;58893;53.130;8.158;2022-08-30T10:09:10;21.60;59.30
71188;DHT22;58893;53.130;8.158;2022-08-30T10:12:05;21.60;59.10
71188;DHT22;58893;53.130;8.158;2022-08-30T10:25:45;21.70;59.20
71188;DHT22;58893;53.130;8.158;2022-08-30T10:28:18;21.70;59.10
71188;DHT22;58893;53.130;8.158;2022-08-30T10:30:52;21.70;59.50
71188;DHT22;58893;53.130;8.158;2022-08-30T10:33:24;21.80;59.50
71188;DHT22;58893;53.130;8.158;2022-08-30T10:35:54;21.80;59.10
71188;DHT22;58893;53.130;8.158;2022-08-30T10:38:25;21.80;58.80
71188;DHT22;58893;53.130;8.158;2022-08-30T10:41:02;21.80;58.60
71188;DHT22;58893;53.130;8.158;2022-08-30T10:46:32;21.90;58.30
71188;DHT22;58893;53.130;8.158;2022-08-30T10:49:01;21.90;58.40
71188;DHT22;58893;53.130;8.158;2022-08-30T10:51:46;21.90;58.50
71188;DHT22;58893;53.130;8.158;2022-08-30T10:54:45;21.90;58.50
71188;DHT22;58893;53.130;8.158;2022-08-30T10:57:11;22.00;58.40
71188;DHT22;58893;53.130;8.158;2022-08-30T10:59:41;22.00;58.30
71188;DHT22;58893;53.130;8.158;2022-08-30T11:12:51;22.10;58.70
71188;DHT22;58893;53.130;8.158;2022-08-30T11:15:27;22.10;58.30
71188;DHT22;58893;53.130;8.158;2022-08-30T11:17:56;22.10;57.80
71188;DHT22;58893;53.130;8.158;2022-08-30T11:20:35;22.10;57.80
71188;DHT22;58893;53.130;8.158;2022-08-30T11:23:24;22.10;58.00
71188;DHT22;58893;53.130;8.158;2022-08-30T11:25:52;22.10;58.20
71188;DHT22;58893;53.130;8.158;2022-08-30T11:33:55;22.20;58.70
71188;DHT22;58893;53.130;8.158;2022-08-30T11:46:39;22.30;58.60
71188;DHT22;58893;53.130;8.158;2022-08-30T11:57:30;22.40;58.80
71188;DHT22;58893;53.130;8.158;2022-08-30T12:00:42;22.40;58.50
71188;DHT22;58893;53.130;8.158;2022-08-30T12:10:47;22.50;58.10
71188;DHT22;58893;53.130;8.158;2022-08-30T12:18:54;22.70;57.40
71188;DHT22;58893;53.130;8.158;2022-08-30T12:21:22;22.70;57.00
71188;DHT22;58893;53.130;8.158;2022-08-30T12:28:49;22.90;56.70
71188;DHT22;58893;53.130;8.158;2022-08-30T12:31:24;23.00;57.00
71188;DHT22;58893;53.130;8.158;2022-08-30T12:33:55;23.00;55.80
71188;DHT22;58893;53.130;8.158;2022-08-30T12:39:27;23.00;54.80
71188;DHT22;58893;53.130;8.158;2022-08-30T12:41:53;23.00;55.00
71188;DHT22;58893;53.130;8.158;2022-08-30T12:44:28;23.00;55.00
71188;DHT22;58893;53.130;8.158;2022-08-30T12:46:59;23.00;54.90
71188;DHT22;58893;53.130;8.158;2022-08-30T12:49:28;23.00;55.00
71188;DHT22;58893;53.130;8.158;2022-08-30T12:51:54;23.00;55.00
71188;DHT22;58893;53.130;8.158;2022-08-30T12:54:23;22.90;55.20
71188;DHT22;58893;53.130;8.158;2022-08-30T12:59:37;23.00;55.60
71188;DHT22;58893;53.130;8.158;2022-08-30T13:02:21;23.00;55.70
71188;DHT22;58893;53.130;8.158;2022-08-30T13:04:49;23.00;55.70
71188;DHT22;58893;53.130;8.158;2022-08-30T13:07:34;23.00;55.50
71188;DHT22;58893;53.130;8.158;2022-08-30T13:10:07;23.00;55.40
71188;DHT22;58893;53.130;8.158;2022-08-30T13:12:34;23.00;55.40
71188;DHT22;58893;53.130;8.158;2022-08-30T13:15:19;23.10;55.40
71188;DHT22;58893;53.130;8.158;2022-08-30T13:18:11;23.10;55.20
71188;DHT22;58893;53.130;8.158;2022-08-30T13:20:40;23.10;54.40
71188;DHT22;58893;53.130;8.158;2022-08-30T13:23:08;23.10;54.20
71188;DHT22;58893;53.130;8.158;2022-08-30T13:25:35;23.10;54.20
71188;DHT22;58893;53.130;8.158;2022-08-30T13:28:03;23.10;53.90
71188;DHT22;58893;53.130;8.158;2022-08-30T13:30:30;23.10;53.60
71188;DHT22;58893;53.130;8.158;2022-08-30T13:32:56;23.10;53.60
71188;DHT22;58893;53.130;8.158;2022-08-30T13:35:22;23.10;53.70
71188;DHT22;58893;53.130;8.158;2022-08-30T13:37:47;23.10;53.90
71188;DHT22;58893;53.130;8.158;2022-08-30T13:40:14;23.10;54.20
71188;DHT22;58893;53.130;8.158;2022-08-30T13:42:41;23.10;54.50
71188;DHT22;58893;53.130;8.158;2022-08-30T13:45:09;23.20;54.70
71188;DHT22;58893;53.130;8.158;2022-08-30T13:47:35;23.10;54.70
71188;DHT22;58893;53.130;8.158;2022-08-30T13:50:01;23.10;54.60
71188;DHT22;58893;53.130;8.158;2022-08-30T13:52:26;23.20;54.50
71188;DHT22;58893;53.130;8.158;2022-08-30T13:54:54;23.20;54.00
71188;DHT22;58893;53.130;8.158;2022-08-30T13:57:22;23.20;53.30
71188;DHT22;58893;53.130;8.158;2022-08-30T13:59:48;23.20;52.90
71188;DHT22;58893;53.130;8.158;2022-08-30T14:02:14;23.30;52.50
71188;DHT22;58893;53.130;8.158;2022-08-30T14:04:39;23.30;52.10
71188;DHT22;58893;53.130;8.158;2022-08-30T14:07:05;23.30;52.00
71188;DHT22;58893;53.130;8.158;2022-08-30T14:09:31;23.30;52.00
71188;DHT22;58893;53.130;8.158;2022-08-30T14:11:56;23.30;52.40
71188;DHT22;58893;53.130;8.158;2022-08-30T14:14:22;23.30;53.00
71188;DHT22;58893;53.130;8.158;2022-08-30T14:16:49;23.30;53.40
71188;DHT22;58893;53.130;8.158;2022-08-30T14:19:16;23.30;53.70
71188;DHT22;58893;53.130;8.158;2022-08-30T14:21:42;23.40;53.80
71188;DHT22;58893;53.130;8.158;2022-08-30T14:24:08;23.40;53.70
71188;DHT22;58893;53.130;8.158;2022-08-30T14:26:38;23.40;53.70
71188;DHT22;58893;53.130;8.158;2022-08-30T14:29:08;23.40;54.60
71188;DHT22;58893;53.130;8.158;2022-08-30T14:31:34;23.40;53.80
71188;DHT22;58893;53.130;8.158;2022-08-30T14:34:03;23.40;53.00
71188;DHT22;58893;53.130;8.158;2022-08-30T14:36:30;23.40;52.60
71188;DHT22;58893;53.130;8.158;2022-08-30T14:38:55;23.40;52.40
71188;DHT22;58893;53.130;8.158;2022-08-30T14:41:22;23.40;52.30
71188;DHT22;58893;53.130;8.158;2022-08-30T14:43:49;23.40;52.40
71188;DHT22;58893;53.130;8.158;2022-08-30T14:46:15;23.40;52.20
71188;DHT22;58893;53.130;8.158;2022-08-30T14:48:41;23.40;52.10
71188;DHT22;58893;53.130;8.158;2022-08-30T14:51:16;23.40;52.10
71188;DHT22;58893;53.130;8.158;2022-08-30T14:53:43;23.40;52.40
71188;DHT22;58893;53.130;8.158;2022-08-30T14:56:11;23.40;52.50
71188;DHT22;58893;53.130;8.158;2022-08-30T14:58:37;23.40;52.60
71188;DHT22;58893;53.130;8.158;2022-08-30T15:01:06;23.50;52.50
71188;DHT22;58893;53.130;8.158;2022-08-30T15:03:33;23.50;52.50
71188;DHT22;58893;53.130;8.158;2022-08-30T15:05:58;23.50;52.40
71188;DHT22;58893;53.130;8.158;2022-08-30T15:08:24;23.50;52.40
71188;DHT22;58893;53.130;8.158;2022-08-30T15:10:50;23.50;52.20
71188;DHT22;58893;53.130;8.158;2022-08-30T15:13:15;23.50;52.20
71188;DHT22;58893;53.130;8.158;2022-08-30T15:15:42;23.50;52.00
71188;DHT22;58893;53.130;8.158;2022-08-30T15:18:08;23.50;52.60
71188;DHT22;58893;53.130;8.158;2022-08-30T15:20:34;23.50;52.50
71188;DHT22;58893;53.130;8.158;2022-08-30T15:23:00;23.50;51.90
71188;DHT22;58893;53.130;8.158;2022-08-30T15:25:25;23.50;52.10
71188;DHT22;58893;53.130;8.158;2022-08-30T15:27:51;23.50;52.20
71188;DHT22;58893;53.130;8.158;2022-08-30T15:30:17;23.50;52.30
71188;DHT22;58893;53.130;8.158;2022-08-30T15:32:42;23.50;52.40
71188;DHT22;58893;53.130;8.158;2022-08-30T15:35:08;23.50;52.50
71188;DHT22;58893;53.130;8.158;2022-08-30T15:37:34;23.60;52.60
71188;DHT22;58893;53.130;8.158;2022-08-30T15:39:59;23.60;52.50
71188;DHT22;58893;53.130;8.158;2022-08-30T15:42:25;23.50;52.40
71188;DHT22;58893;53.130;8.158;2022-08-30T15:44:51;23.50;52.20
71188;DHT22;58893;53.130;8.158;2022-08-30T15:47:21;23.50;52.60
71188;DHT22;58893;53.130;8.158;2022-08-30T15:49:55;23.50;52.00
71188;DHT22;58893;53.130;8.158;2022-08-30T15:52:21;23.50;51.90
71188;DHT22;58893;53.130;8.158;2022-08-30T15:54:46;23.50;51.80
71188;DHT22;58893;53.130;8.158;2022-08-30T15:57:12;23.50;51.60
71188;DHT22;58893;53.130;8.158;2022-08-30T15:59:38;23.50;51.40
71188;DHT22;58893;53.130;8.158;2022-08-30T16:02:04;23.50;51.30
71188;DHT22;58893;53.130;8.158;2022-08-30T16:04:29;23.50;51.50
71188;DHT22;58893;53.130;8.158;2022-08-30T16:06:55;23.50;54.40
71188;DHT22;58893;53.130;8.158;2022-08-30T16:09:21;23.50;52.30
71188;DHT22;58893;53.130;8.158;2022-08-30T16:11:47;23.50;52.50
71188;DHT22;58893;53.130;8.158;2022-08-30T16:14:13;23.50;52.60
71188;DHT22;58893;53.130;8.158;2022-08-30T16:16:39;23.50;52.60
71188;DHT22;58893;53.130;8.158;2022-08-30T16:19:06;23.50;52.60
71188;DHT22;58893;53.130;8.158;2022-08-30T16:21:34;23.50;52.70
71188;DHT22;58893;53.130;8.158;2022-08-30T16:24:02;23.50;52.90
71188;DHT22;58893;53.130;8.158;2022-08-30T16:26:28;23.50;53.00
71188;DHT22;58893;53.130;8.158;2022-08-30T16:28:54;23.50;53.00
71188;DHT22;58893;53.130;8.158;2022-08-30T16:31:21;23.40;53.30
71188;DHT22;58893;53.130;8.158;2022-08-30T16:33:47;23.40;53.20
71188;DHT22;58893;53.130;8.158;2022-08-30T16:36:14;23.40;53.20
71188;DHT22;58893;53.130;8.158;2022-08-30T16:38:40;23.30;53.00
71188;DHT22;58893;53.130;8.158;2022-08-30T16:41:09;23.30;53.10
71188;DHT22;58893;53.130;8.158;2022-08-30T16:43:35;23.30;53.20
71188;DHT22;58893;53.130;8.158;2022-08-30T16:46:04;23.30;53.20
71188;DHT22;58893;53.130;8.158;2022-08-30T16:48:30;23.20;53.20
71188;DHT22;58893;53.130;8.158;2022-08-30T16:50:56;23.20;53.30
71188;DHT22;58893;53.130;8.158;2022-08-30T16:53:25;23.20;53.40
71188;DHT22;58893;53.130;8.158;2022-08-30T16:55:50;23.20;53.60
71188;DHT22;58893;53.130;8.158;2022-08-30T16:58:16;23.20;53.60
71188;DHT22;58893;53.130;8.158;2022-08-30T17:00:42;23.20;53.70
71188;DHT22;58893;53.130;8.158;2022-08-30T17:03:11;23.20;54.00
71188;DHT22;58893;53.130;8.158;2022-08-30T17:05:38;23.20;53.90
71188;DHT22;58893;53.130;8.158;2022-08-30T17:08:04;23.10;53.80